Upper Saint Clair, Pennsylvania
Current Conditions -  °F | °C
As of 3:53 PM on Thursday 27 Nov 2014 (Local Time) from KAGC Reporting Station
Overcast Overcast  
Wind Chill: 24°   Ceiling: 1500
Heat Index: 32°   Visibility: 8mi
Dew Point: 25°   Wind: 10mph
Humidity: 75%   Direction: 320°NW
Pressure: 30.09"   Gusts: 20mph
Location:  40.3301°N, 80.0824°W
Report Text: KAGC 272053Z 32009G17KT 8SM BKN015 OVC025 00/M04 A3009 RMK AO2 SNB1956E17 SLP206 P0000 60000 T00001039 53013
Loading
Personal Weather Stations






























Interactive Weather Map New forecast layout! Learn more

10-Day Weather Forecast

Advertisements
Track Severe Weather on mobile